MIE weather

Delaware County Johnson Field
Muncie, Indiana, United States

Public forecast

Using degrees Fahrenheit for public forecast. Weather courtesy of forecast.io.

Current aviation weather report (METAR) for Delaware County Johnson Field

Retrieved 2020/02/20 12:53 UTC (1 hour ago):

KMIE 201253Z 03009KT 10SM CLR M05/M10 A3055 RMK AO2 SLP355 T10501100

Closest aviation forecast (TAF) to Delaware County Johnson Field

Closest forecast is Grissom Air Reserve Base, 42.3 nm (78.3 km) NW. Retrieved 2020/02/20 11:06 UTC (3 hours ago):

TAF KGUS 201100Z 2011/2117 36009KT 9999 BKN100 QNH3054INS BECMG 2014/2015 36012KT 9999 FEW100 QNH3055INS WND 27006KT AFT 2108 TXM03/2019Z TNM10/2111Z